sensor_id;sensor_type;location;lat;lon;timestamp;pressure;altitude;pressure_sealevel;temperature;humidity
72038;BME280;59900;50.788;12.904;2023-04-20T00:02:02;97712.16;;;5.42;88.17
72038;BME280;59900;50.788;12.904;2023-04-20T00:04:28;97715.09;;;5.39;88.72
72038;BME280;59900;50.788;12.904;2023-04-20T00:06:54;97709.88;;;5.39;89.08
72038;BME280;59900;50.788;12.904;2023-04-20T00:09:21;97708.75;;;5.42;88.78
72038;BME280;59900;50.788;12.904;2023-04-20T00:11:46;97711.16;;;5.43;88.87
72038;BME280;59900;50.788;12.904;2023-04-20T00:14:12;97706.13;;;5.42;88.27
72038;BME280;59900;50.788;12.904;2023-04-20T00:16:37;97706.13;;;5.42;87.92
72038;BME280;59900;50.788;12.904;2023-04-20T00:19:02;97705.94;;;5.35;88.55
72038;BME280;59900;50.788;12.904;2023-04-20T00:21:28;97702.38;;;5.28;89.12
72038;BME280;59900;50.788;12.904;2023-04-20T00:23:53;97704.59;;;5.23;90.11
72038;BME280;59900;50.788;12.904;2023-04-20T00:26:18;97700.84;;;5.18;90.19
72038;BME280;59900;50.788;12.904;2023-04-20T00:28:45;97698.41;;;5.16;90.45
72038;BME280;59900;50.788;12.904;2023-04-20T00:31:10;97700.00;;;5.09;90.74
72038;BME280;59900;50.788;12.904;2023-04-20T00:33:35;97698.38;;;5.08;90.99
72038;BME280;59900;50.788;12.904;2023-04-20T00:36:01;97694.16;;;5.07;90.91
72038;BME280;59900;50.788;12.904;2023-04-20T00:38:27;97698.53;;;5.06;91.34
72038;BME280;59900;50.788;12.904;2023-04-20T00:40:55;97695.63;;;5.09;91.88
72038;BME280;59900;50.788;12.904;2023-04-20T00:43:21;97700.00;;;5.09;91.87
72038;BME280;59900;50.788;12.904;2023-04-20T00:45:46;97705.38;;;5.07;91.55
72038;BME280;59900;50.788;12.904;2023-04-20T00:48:12;97695.44;;;5.03;92.53
72038;BME280;59900;50.788;12.904;2023-04-20T00:50:38;97694.16;;;5.07;92.31
72038;BME280;59900;50.788;12.904;2023-04-20T00:53:08;97698.56;;;5.15;92.20
72038;BME280;59900;50.788;12.904;2023-04-20T00:55:36;97699.25;;;5.17;91.91
72038;BME280;59900;50.788;12.904;2023-04-20T00:58:01;97688.47;;;5.20;92.03
72038;BME280;59900;50.788;12.904;2023-04-20T01:00:27;97689.97;;;5.22;91.65
72038;BME280;59900;50.788;12.904;2023-04-20T01:02:52;97683.75;;;5.23;91.94
72038;BME280;59900;50.788;12.904;2023-04-20T01:05:18;97688.97;;;5.23;91.46
72038;BME280;59900;50.788;12.904;2023-04-20T01:07:43;97677.09;;;5.21;91.85
72038;BME280;59900;50.788;12.904;2023-04-20T01:10:09;97684.25;;;5.19;91.75
72038;BME280;59900;50.788;12.904;2023-04-20T01:12:34;97678.72;;;5.22;91.70
72038;BME280;59900;50.788;12.904;2023-04-20T01:15:02;97686.38;;;5.23;91.88
72038;BME280;59900;50.788;12.904;2023-04-20T01:17:27;97679.69;;;5.21;92.24
72038;BME280;59900;50.788;12.904;2023-04-20T01:19:52;97686.38;;;5.23;92.27
72038;BME280;59900;50.788;12.904;2023-04-20T01:22:19;97685.41;;;5.24;92.04
72038;BME280;59900;50.788;12.904;2023-04-20T01:24:45;97685.06;;;5.19;91.94
72038;BME280;59900;50.788;12.904;2023-04-20T01:27:11;97682.28;;;5.13;92.04
72038;BME280;59900;50.788;12.904;2023-04-20T01:29:37;97684.72;;;5.14;92.38
72038;BME280;59900;50.788;12.904;2023-04-20T01:32:03;97682.09;;;5.14;92.21
72038;BME280;59900;50.788;12.904;2023-04-20T01:34:28;97679.34;;;5.16;92.05
72038;BME280;59900;50.788;12.904;2023-04-20T01:36:53;97676.59;;;5.17;92.15
72038;BME280;59900;50.788;12.904;2023-04-20T01:39:19;97681.16;;;5.15;91.81
72038;BME280;59900;50.788;12.904;2023-04-20T01:41:44;97678.41;;;5.17;91.79
72038;BME280;59900;50.788;12.904;2023-04-20T01:44:09;97676.91;;;5.14;91.46
72038;BME280;59900;50.788;12.904;2023-04-20T01:46:38;97675.78;;;5.17;91.74
72038;BME280;59900;50.788;12.904;2023-04-20T01:49:05;97668.94;;;5.16;91.34
72038;BME280;59900;50.788;12.904;2023-04-20T01:51:31;97670.91;;;5.14;91.82
72038;BME280;59900;50.788;12.904;2023-04-20T01:53:57;97674.78;;;5.09;91.78
72038;BME280;59900;50.788;12.904;2023-04-20T01:56:23;97666.97;;;5.09;91.82
72038;BME280;59900;50.788;12.904;2023-04-20T01:58:48;97668.94;;;5.07;92.46
72038;BME280;59900;50.788;12.904;2023-04-20T02:01:13;97674.59;;;5.11;92.21
72038;BME280;59900;50.788;12.904;2023-04-20T02:03:38;97671.84;;;5.13;92.16
72038;BME280;59900;50.788;12.904;2023-04-20T02:06:04;97666.78;;;5.11;92.55
72038;BME280;59900;50.788;12.904;2023-04-20T02:08:29;97665.63;;;5.05;92.44
72038;BME280;59900;50.788;12.904;2023-04-20T02:10:54;97658.00;;;5.04;92.32
72038;BME280;59900;50.788;12.904;2023-04-20T02:13:20;97658.66;;;5.06;92.09
72038;BME280;59900;50.788;12.904;2023-04-20T02:15:45;97657.50;;;5.00;91.63
72038;BME280;59900;50.788;12.904;2023-04-20T02:18:10;97656.34;;;5.03;91.87
72038;BME280;59900;50.788;12.904;2023-04-20T02:20:36;97655.41;;;5.04;91.68
72038;BME280;59900;50.788;12.904;2023-04-20T02:23:01;97664.16;;;5.03;91.39
72038;BME280;59900;50.788;12.904;2023-04-20T02:25:26;97662.38;;;5.03;92.04
72038;BME280;59900;50.788;12.904;2023-04-20T02:27:52;97658.66;;;5.06;92.02
72038;BME280;59900;50.788;12.904;2023-04-20T02:30:17;97654.41;;;5.05;91.75
72038;BME280;59900;50.788;12.904;2023-04-20T02:32:42;97659.78;;;5.03;91.25
72038;BME280;59900;50.788;12.904;2023-04-20T02:35:08;97655.72;;;5.01;91.17
72038;BME280;59900;50.788;12.904;2023-04-20T02:37:33;97660.59;;;4.96;90.77
72038;BME280;59900;50.788;12.904;2023-04-20T02:39:59;97663.00;;;4.89;91.00
72038;BME280;59900;50.788;12.904;2023-04-20T02:42:24;97661.84;;;4.84;91.15
72038;BME280;59900;50.788;12.904;2023-04-20T02:44:49;97663.13;;;4.80;91.58
72038;BME280;59900;50.788;12.904;2023-04-20T02:47:17;97658.53;;;4.74;91.34
72038;BME280;59900;50.788;12.904;2023-04-20T02:49:42;97663.09;;;4.72;91.33
72038;BME280;59900;50.788;12.904;2023-04-20T02:52:08;97665.50;;;4.65;91.75
72038;BME280;59900;50.788;12.904;2023-04-20T02:54:33;97661.56;;;4.61;91.84
72038;BME280;59900;50.788;12.904;2023-04-20T02:56:58;97656.31;;;4.53;91.85
72038;BME280;59900;50.788;12.904;2023-04-20T02:59:23;97661.69;;;4.51;92.42
72038;BME280;59900;50.788;12.904;2023-04-20T03:01:49;97669.28;;;4.45;91.98
72038;BME280;59900;50.788;12.904;2023-04-20T03:04:14;97659.34;;;4.40;92.29
72038;BME280;59900;50.788;12.904;2023-04-20T03:06:39;97670.72;;;4.39;92.42
72038;BME280;59900;50.788;12.904;2023-04-20T03:09:05;97665.81;;;4.36;92.46
72038;BME280;59900;50.788;12.904;2023-04-20T03:11:31;97673.78;;;4.35;92.32
72038;BME280;59900;50.788;12.904;2023-04-20T03:13:56;97671.16;;;4.35;92.58
72038;BME280;59900;50.788;12.904;2023-04-20T03:16:22;97672.16;;;4.34;92.39
72038;BME280;59900;50.788;12.904;2023-04-20T03:18:47;97668.38;;;4.28;92.36
72038;BME280;59900;50.788;12.904;2023-04-20T03:21:12;97671.28;;;4.25;92.80
72038;BME280;59900;50.788;12.904;2023-04-20T03:23:39;97669.66;;;4.24;92.86
72038;BME280;59900;50.788;12.904;2023-04-20T03:26:04;97664.75;;;4.21;92.62
72038;BME280;59900;50.788;12.904;2023-04-20T03:28:29;97669.31;;;4.19;92.58
72038;BME280;59900;50.788;12.904;2023-04-20T03:30:54;97664.41;;;4.16;92.67
72038;BME280;59900;50.788;12.904;2023-04-20T03:33:20;97664.72;;;4.13;92.57
72038;BME280;59900;50.788;12.904;2023-04-20T03:35:45;97658.69;;;4.13;92.58
72038;BME280;59900;50.788;12.904;2023-04-20T03:38:10;97657.50;;;4.07;92.66
72038;BME280;59900;50.788;12.904;2023-04-20T03:40:35;97655.66;;;4.00;92.99
72038;BME280;59900;50.788;12.904;2023-04-20T03:43:01;97663.94;;;3.95;93.66
72038;BME280;59900;50.788;12.904;2023-04-20T03:45:26;97667.13;;;3.89;94.01
72038;BME280;59900;50.788;12.904;2023-04-20T03:47:51;97664.00;;;3.85;93.83
72038;BME280;59900;50.788;12.904;2023-04-20T03:50:17;97656.81;;;3.79;94.05
72038;BME280;59900;50.788;12.904;2023-04-20T03:52:42;97662.84;;;3.80;94.27
72038;BME280;59900;50.788;12.904;2023-04-20T03:55:07;97665.59;;;3.78;94.18
72038;BME280;59900;50.788;12.904;2023-04-20T03:57:33;97666.97;;;3.73;93.88
72038;BME280;59900;50.788;12.904;2023-04-20T03:59:58;97663.91;;;3.69;93.75
72038;BME280;59900;50.788;12.904;2023-04-20T04:02:23;97665.00;;;3.67;93.77
72038;BME280;59900;50.788;12.904;2023-04-20T04:04:49;97665.59;;;3.61;94.07
72038;BME280;59900;50.788;12.904;2023-04-20T04:07:14;97665.22;;;3.56;93.92
72038;BME280;59900;50.788;12.904;2023-04-20T04:09:39;97661.81;;;3.55;94.17
72038;BME280;59900;50.788;12.904;2023-04-20T04:12:05;97657.88;;;3.51;94.32
72038;BME280;59900;50.788;12.904;2023-04-20T04:14:31;97657.34;;;3.48;94.18
72038;BME280;59900;50.788;12.904;2023-04-20T04:16:56;97655.06;;;3.45;94.49
72038;BME280;59900;50.788;12.904;2023-04-20T04:19:22;97667.38;;;3.43;94.79
72038;BME280;59900;50.788;12.904;2023-04-20T04:21:47;97660.00;;;3.38;94.26
72038;BME280;59900;50.788;12.904;2023-04-20T04:24:12;97659.66;;;3.33;93.79
72038;BME280;59900;50.788;12.904;2023-04-20T04:26:38;97661.44;;;3.32;94.49
72038;BME280;59900;50.788;12.904;2023-04-20T04:29:03;97668.84;;;3.27;94.42
72038;BME280;59900;50.788;12.904;2023-04-20T04:31:29;97664.63;;;3.26;94.81
72038;BME280;59900;50.788;12.904;2023-04-20T04:33:55;97668.03;;;3.27;94.76
72038;BME280;59900;50.788;12.904;2023-04-20T04:36:21;97661.19;;;3.26;94.97
72038;BME280;59900;50.788;12.904;2023-04-20T04:38:48;97667.38;;;3.25;95.00
72038;BME280;59900;50.788;12.904;2023-04-20T04:41:13;97667.50;;;3.23;95.28
72038;BME280;59900;50.788;12.904;2023-04-20T04:43:39;97667.22;;;3.26;95.56
72038;BME280;59900;50.788;12.904;2023-04-20T04:46:06;97663.94;;;3.24;95.28
72038;BME280;59900;50.788;12.904;2023-04-20T04:48:33;97667.66;;;3.22;95.99
72038;BME280;59900;50.788;12.904;2023-04-20T04:50:59;97673.28;;;3.17;96.09
72038;BME280;59900;50.788;12.904;2023-04-20T04:53:24;97667.28;;;3.17;96.27
72038;BME280;59900;50.788;12.904;2023-04-20T04:55:50;97674.91;;;3.18;96.22
72038;BME280;59900;50.788;12.904;2023-04-20T04:58:15;97682.59;;;3.20;96.39
72038;BME280;59900;50.788;12.904;2023-04-20T05:00:40;97680.34;;;3.25;96.22
72038;BME280;59900;50.788;12.904;2023-04-20T05:03:05;97686.09;;;3.28;96.17
72038;BME280;59900;50.788;12.904;2023-04-20T05:05:31;97678.13;;;3.30;95.90
72038;BME280;59900;50.788;12.904;2023-04-20T05:07:56;97683.03;;;3.33;95.80
72038;BME280;59900;50.788;12.904;2023-04-20T05:10:21;97686.28;;;3.35;95.76
72038;BME280;59900;50.788;12.904;2023-04-20T05:12:46;97678.06;;;3.39;95.69
72038;BME280;59900;50.788;12.904;2023-04-20T05:15:12;97693.34;;;3.43;95.58
72038;BME280;59900;50.788;12.904;2023-04-20T05:17:38;97695.97;;;3.43;95.90
72038;BME280;59900;50.788;12.904;2023-04-20T05:20:03;97692.78;;;3.49;95.75
72038;BME280;59900;50.788;12.904;2023-04-20T05:22:30;97702.47;;;3.47;95.78
72038;BME280;59900;50.788;12.904;2023-04-20T05:24:57;97703.81;;;3.51;95.69
72038;BME280;59900;50.788;12.904;2023-04-20T05:27:22;97706.41;;;3.51;95.85
72038;BME280;59900;50.788;12.904;2023-04-20T05:29:47;97713.63;;;3.57;95.24
72038;BME280;59900;50.788;12.904;2023-04-20T05:32:12;97712.38;;;3.61;95.17
72038;BME280;59900;50.788;12.904;2023-04-20T05:34:38;97717.94;;;3.66;94.94
72038;BME280;59900;50.788;12.904;2023-04-20T05:37:03;97722.19;;;3.67;94.54
72038;BME280;59900;50.788;12.904;2023-04-20T05:39:29;97721.56;;;3.73;94.25
72038;BME280;59900;50.788;12.904;2023-04-20T05:41:54;97722.03;;;3.68;94.11
72038;BME280;59900;50.788;12.904;2023-04-20T05:44:20;97720.38;;;3.67;94.29
72038;BME280;59900;50.788;12.904;2023-04-20T05:46:45;97720.91;;;3.71;94.41
72038;BME280;59900;50.788;12.904;2023-04-20T05:49:10;97724.69;;;3.76;94.17
72038;BME280;59900;50.788;12.904;2023-04-20T05:51:36;97726.03;;;3.80;94.30
72038;BME280;59900;50.788;12.904;2023-04-20T05:54:02;97726.25;;;3.87;93.98
72038;BME280;59900;50.788;12.904;2023-04-20T05:56:27;97725.28;;;3.88;94.04
72038;BME280;59900;50.788;12.904;2023-04-20T05:58:53;97733.31;;;3.94;93.83
72038;BME280;59900;50.788;12.904;2023-04-20T06:01:19;97737.25;;;3.99;93.81
72038;BME280;59900;50.788;12.904;2023-04-20T06:03:45;97729.44;;;3.99;93.55
72038;BME280;59900;50.788;12.904;2023-04-20T06:06:11;97741.31;;;4.01;93.19
72038;BME280;59900;50.788;12.904;2023-04-20T06:08:36;97737.97;;;4.09;93.31
72038;BME280;59900;50.788;12.904;2023-04-20T06:11:01;97746.16;;;4.14;92.11
72038;BME280;59900;50.788;12.904;2023-04-20T06:13:27;97737.88;;;4.18;91.66
72038;BME280;59900;50.788;12.904;2023-04-20T06:15:52;97741.66;;;4.24;91.30
72038;BME280;59900;50.788;12.904;2023-04-20T06:18:18;97744.47;;;4.30;91.32
72038;BME280;59900;50.788;12.904;2023-04-20T06:20:43;97742.88;;;4.37;90.79
72038;BME280;59900;50.788;12.904;2023-04-20T06:23:09;97744.41;;;4.40;89.74
72038;BME280;59900;50.788;12.904;2023-04-20T06:25:35;97730.09;;;4.44;89.54
72038;BME280;59900;50.788;12.904;2023-04-20T06:28:01;97731.09;;;4.43;89.36
72038;BME280;59900;50.788;12.904;2023-04-20T06:30:27;97728.19;;;4.46;88.62
72038;BME280;59900;50.788;12.904;2023-04-20T06:32:52;97728.00;;;4.47;88.59
72038;BME280;59900;50.788;12.904;2023-04-20T06:35:17;97728.66;;;4.49;87.82
72038;BME280;59900;50.788;12.904;2023-04-20T06:37:42;97736.78;;;4.46;87.44
72038;BME280;59900;50.788;12.904;2023-04-20T06:40:08;97732.41;;;4.47;87.85
72038;BME280;59900;50.788;12.904;2023-04-20T06:42:33;97727.41;;;4.53;87.89
72038;BME280;59900;50.788;12.904;2023-04-20T06:44:58;97728.44;;;4.61;87.25
72038;BME280;59900;50.788;12.904;2023-04-20T06:47:24;97721.59;;;4.60;86.35
72038;BME280;59900;50.788;12.904;2023-04-20T06:49:58;97734.94;;;4.65;85.71
72038;BME280;59900;50.788;12.904;2023-04-20T06:52:24;97732.19;;;4.66;85.68
72038;BME280;59900;50.788;12.904;2023-04-20T06:54:49;97735.97;;;4.72;86.19
72038;BME280;59900;50.788;12.904;2023-04-20T06:57:15;97737.97;;;4.78;85.92
72038;BME280;59900;50.788;12.904;2023-04-20T06:59:40;97735.34;;;4.78;85.06
72038;BME280;59900;50.788;12.904;2023-04-20T07:02:05;97746.59;;;4.78;85.16
72038;BME280;59900;50.788;12.904;2023-04-20T07:04:31;97733.72;;;4.77;84.08
72038;BME280;59900;50.788;12.904;2023-04-20T07:06:56;97734.03;;;4.74;83.11
72038;BME280;59900;50.788;12.904;2023-04-20T07:09:21;97734.84;;;4.74;83.44
72038;BME280;59900;50.788;12.904;2023-04-20T07:11:47;97733.41;;;4.80;83.51
72038;BME280;59900;50.788;12.904;2023-04-20T07:14:12;97736.53;;;4.83;83.30
72038;BME280;59900;50.788;12.904;2023-04-20T07:16:38;97744.16;;;4.85;83.04
72038;BME280;59900;50.788;12.904;2023-04-20T07:19:03;97742.91;;;4.89;83.22
72038;BME280;59900;50.788;12.904;2023-04-20T07:21:29;97745.31;;;4.90;84.25
72038;BME280;59900;50.788;12.904;2023-04-20T07:23:56;97738.72;;;4.96;84.42
72038;BME280;59900;50.788;12.904;2023-04-20T07:26:23;97736.59;;;4.99;84.12
72038;BME280;59900;50.788;12.904;2023-04-20T07:28:49;97742.78;;;4.98;84.07
72038;BME280;59900;50.788;12.904;2023-04-20T07:31:15;97735.63;;;5.00;83.92
72038;BME280;59900;50.788;12.904;2023-04-20T07:33:41;97731.25;;;5.01;83.65
72038;BME280;59900;50.788;12.904;2023-04-20T07:36:06;97727.84;;;5.08;84.16
72038;BME280;59900;50.788;12.904;2023-04-20T07:38:31;97722.63;;;5.08;83.24
72038;BME280;59900;50.788;12.904;2023-04-20T07:40:57;97732.22;;;5.08;83.03
72038;BME280;59900;50.788;12.904;2023-04-20T07:43:22;97729.81;;;5.15;82.37
72038;BME280;59900;50.788;12.904;2023-04-20T07:45:47;97728.38;;;5.20;81.68
72038;BME280;59900;50.788;12.904;2023-04-20T07:48:12;97730.53;;;5.33;81.66
72038;BME280;59900;50.788;12.904;2023-04-20T07:50:38;97737.22;;;5.43;81.51
72038;BME280;59900;50.788;12.904;2023-04-20T07:53:03;97735.47;;;5.52;81.50
72038;BME280;59900;50.788;12.904;2023-04-20T07:55:28;97738.94;;;5.69;81.72
72038;BME280;59900;50.788;12.904;2023-04-20T07:57:54;97738.13;;;5.76;80.32
72038;BME280;59900;50.788;12.904;2023-04-20T08:00:19;97737.66;;;5.81;79.54
72038;BME280;59900;50.788;12.904;2023-04-20T08:02:44;97734.59;;;5.93;80.79
72038;BME280;59900;50.788;12.904;2023-04-20T08:05:10;97736.59;;;6.07;80.42
72038;BME280;59900;50.788;12.904;2023-04-20T08:07:35;97730.38;;;6.25;80.44
72038;BME280;59900;50.788;12.904;2023-04-20T08:10:00;97735.75;;;6.39;79.49
72038;BME280;59900;50.788;12.904;2023-04-20T08:12:27;97723.00;;;6.52;79.09
72038;BME280;59900;50.788;12.904;2023-04-20T08:14:52;97722.63;;;6.71;78.54
72038;BME280;59900;50.788;12.904;2023-04-20T08:17:17;97725.84;;;6.82;78.39
72038;BME280;59900;50.788;12.904;2023-04-20T08:19:42;97722.91;;;6.85;77.83
72038;BME280;59900;50.788;12.904;2023-04-20T08:22:08;97724.84;;;6.91;77.60
72038;BME280;59900;50.788;12.904;2023-04-20T08:24:36;97733.50;;;6.91;76.85
72038;BME280;59900;50.788;12.904;2023-04-20T08:27:01;97722.91;;;6.93;76.81
72038;BME280;59900;50.788;12.904;2023-04-20T08:29:26;97732.50;;;7.00;77.76
72038;BME280;59900;50.788;12.904;2023-04-20T08:31:52;97724.81;;;7.07;77.08
72038;BME280;59900;50.788;12.904;2023-04-20T08:34:17;97720.84;;;7.19;76.63
72038;BME280;59900;50.788;12.904;2023-04-20T08:36:42;97719.81;;;7.28;76.05
72038;BME280;59900;50.788;12.904;2023-04-20T08:39:13;97718.19;;;7.27;76.27
72038;BME280;59900;50.788;12.904;2023-04-20T08:41:38;97712.44;;;7.31;75.80
72038;BME280;59900;50.788;12.904;2023-04-20T08:44:03;97727.78;;;7.43;76.19
72038;BME280;59900;50.788;12.904;2023-04-20T08:46:29;97726.03;;;7.58;75.00
72038;BME280;59900;50.788;12.904;2023-04-20T08:48:55;97729.47;;;7.58;74.66
72038;BME280;59900;50.788;12.904;2023-04-20T08:51:21;97722.56;;;7.65;74.75
72038;BME280;59900;50.788;12.904;2023-04-20T08:53:46;97722.22;;;7.68;74.26
72038;BME280;59900;50.788;12.904;2023-04-20T08:56:12;97726.75;;;7.74;73.10
72038;BME280;59900;50.788;12.904;2023-04-20T08:58:37;97732.44;;;7.78;70.60
72038;BME280;59900;50.788;12.904;2023-04-20T09:01:09;97732.06;;;7.89;71.76
72038;BME280;59900;50.788;12.904;2023-04-20T09:03:40;97736.34;;;7.82;69.54
72038;BME280;59900;50.788;12.904;2023-04-20T09:06:14;97729.38;;;7.97;69.50
72038;BME280;59900;50.788;12.904;2023-04-20T09:08:41;97727.50;;;8.06;69.41
72038;BME280;59900;50.788;12.904;2023-04-20T09:11:27;97739.28;;;8.10;68.42
72038;BME280;59900;50.788;12.904;2023-04-20T09:16:26;97743.00;;;8.15;66.92
72038;BME280;59900;50.788;12.904;2023-04-20T09:18:52;97736.94;;;8.15;65.22
72038;BME280;59900;50.788;12.904;2023-04-20T09:21:18;97751.66;;;8.16;66.12
72038;BME280;59900;50.788;12.904;2023-04-20T09:23:54;97744.91;;;8.21;66.03
72038;BME280;59900;50.788;12.904;2023-04-20T09:26:20;97748.78;;;8.25;65.96
72038;BME280;59900;50.788;12.904;2023-04-20T09:28:45;97749.13;;;8.22;66.17
72038;BME280;59900;50.788;12.904;2023-04-20T09:31:21;97743.28;;;8.20;65.75
72038;BME280;59900;50.788;12.904;2023-04-20T09:34:00;97733.00;;;8.19;65.47
72038;BME280;59900;50.788;12.904;2023-04-20T09:36:38;97731.69;;;8.15;66.29
72038;BME280;59900;50.788;12.904;2023-04-20T09:39:09;97730.19;;;8.20;66.44
72038;BME280;59900;50.788;12.904;2023-04-20T09:41:35;97729.84;;;8.23;66.16
72038;BME280;59900;50.788;12.904;2023-04-20T09:44:02;97731.81;;;8.21;66.68
72038;BME280;59900;50.788;12.904;2023-04-20T09:46:28;97720.88;;;8.18;66.71
72038;BME280;59900;50.788;12.904;2023-04-20T09:48:58;97737.44;;;8.10;67.39
72038;BME280;59900;50.788;12.904;2023-04-20T09:51:28;97728.69;;;8.03;67.26
72038;BME280;59900;50.788;12.904;2023-04-20T09:53:55;97726.88;;;8.04;65.93
72038;BME280;59900;50.788;12.904;2023-04-20T09:56:20;97714.16;;;8.01;67.11
72038;BME280;59900;50.788;12.904;2023-04-20T09:58:46;97711.19;;;8.04;66.16
72038;BME280;59900;50.788;12.904;2023-04-20T10:01:11;97710.47;;;8.10;65.96
72038;BME280;59900;50.788;12.904;2023-04-20T10:03:40;97712.03;;;8.19;66.46
72038;BME280;59900;50.788;12.904;2023-04-20T10:06:23;97711.50;;;8.23;65.59
72038;BME280;59900;50.788;12.904;2023-04-20T10:08:50;97711.66;;;8.30;65.89
72038;BME280;59900;50.788;12.904;2023-04-20T10:11:46;97712.91;;;8.34;64.71
72038;BME280;59900;50.788;12.904;2023-04-20T10:14:24;97717.63;;;8.38;65.35
72038;BME280;59900;50.788;12.904;2023-04-20T10:17:04;97716.09;;;8.44;66.03
72038;BME280;59900;50.788;12.904;2023-04-20T10:19:43;97711.31;;;8.48;66.06
72038;BME280;59900;50.788;12.904;2023-04-20T10:22:11;97712.94;;;8.49;65.63
72038;BME280;59900;50.788;12.904;2023-04-20T10:24:37;97707.63;;;8.42;66.13
72038;BME280;59900;50.788;12.904;2023-04-20T10:27:03;97707.03;;;8.32;66.24
72038;BME280;59900;50.788;12.904;2023-04-20T10:29:29;97707.25;;;8.22;66.66
72038;BME280;59900;50.788;12.904;2023-04-20T10:31:55;97709.78;;;8.16;66.65
72038;BME280;59900;50.788;12.904;2023-04-20T10:34:30;97703.25;;;8.12;66.92
72038;BME280;59900;50.788;12.904;2023-04-20T10:37:06;97696.56;;;8.09;67.27
72038;BME280;59900;50.788;12.904;2023-04-20T10:39:32;97692.88;;;8.04;67.19
72038;BME280;59900;50.788;12.904;2023-04-20T10:41:57;97696.00;;;7.99;67.58
72038;BME280;59900;50.788;12.904;2023-04-20T10:44:23;97693.56;;;7.98;67.84
72038;BME280;59900;50.788;12.904;2023-04-20T10:46:50;97687.28;;;8.07;68.13
72038;BME280;59900;50.788;12.904;2023-04-20T10:49:15;97687.03;;;7.94;68.09
72038;BME280;59900;50.788;12.904;2023-04-20T10:51:48;97681.81;;;7.94;68.64
72038;BME280;59900;50.788;12.904;2023-04-20T10:54:14;97678.22;;;7.95;68.81
72038;BME280;59900;50.788;12.904;2023-04-20T10:59:07;97674.44;;;7.97;69.98
72038;BME280;59900;50.788;12.904;2023-04-20T11:01:32;97676.31;;;7.88;70.89
72038;BME280;59900;50.788;12.904;2023-04-20T11:03:58;97675.66;;;7.86;71.07
72038;BME280;59900;50.788;12.904;2023-04-20T11:06:23;97682.34;;;7.89;70.87
72038;BME280;59900;50.788;12.904;2023-04-20T11:08:48;97671.56;;;8.07;70.96
72038;BME280;59900;50.788;12.904;2023-04-20T11:11:24;97669.81;;;8.22;70.66
72038;BME280;59900;50.788;12.904;2023-04-20T11:13:52;97670.03;;;8.35;70.34
72038;BME280;59900;50.788;12.904;2023-04-20T11:16:28;97671.00;;;8.34;70.08
72038;BME280;59900;50.788;12.904;2023-04-20T11:18:54;97664.53;;;8.30;70.20
72038;BME280;59900;50.788;12.904;2023-04-20T11:21:22;97665.28;;;8.16;70.47
72038;BME280;59900;50.788;12.904;2023-04-20T11:23:48;97664.34;;;8.09;70.14
72038;BME280;59900;50.788;12.904;2023-04-20T11:26:14;97673.88;;;8.02;71.33
72038;BME280;59900;50.788;12.904;2023-04-20T11:28:50;97674.06;;;8.00;71.01
72038;BME280;59900;50.788;12.904;2023-04-20T11:31:16;97674.25;;;7.99;71.46
72038;BME280;59900;50.788;12.904;2023-04-20T11:33:42;97672.78;;;7.96;71.62
72038;BME280;59900;50.788;12.904;2023-04-20T11:36:17;97667.28;;;7.91;72.19
72038;BME280;59900;50.788;12.904;2023-04-20T11:38:42;97674.72;;;7.79;73.04
72038;BME280;59900;50.788;12.904;2023-04-20T11:41:08;97667.50;;;7.81;72.94
72038;BME280;59900;50.788;12.904;2023-04-20T11:43:34;97658.84;;;7.81;73.71
72038;BME280;59900;50.788;12.904;2023-04-20T11:45:59;97667.09;;;7.70;74.01
72038;BME280;59900;50.788;12.904;2023-04-20T11:48:28;97663.38;;;7.64;74.63
72038;BME280;59900;50.788;12.904;2023-04-20T11:50:55;97662.22;;;7.67;74.60
72038;BME280;59900;50.788;12.904;2023-04-20T11:53:20;97665.72;;;7.82;74.37
72038;BME280;59900;50.788;12.904;2023-04-20T11:55:46;97664.13;;;7.96;74.92
72038;BME280;59900;50.788;12.904;2023-04-20T11:58:11;97655.06;;;8.06;74.32
72038;BME280;59900;50.788;12.904;2023-04-20T12:00:36;97661.09;;;8.07;73.47
72038;BME280;59900;50.788;12.904;2023-04-20T12:03:01;97662.81;;;8.14;74.19
72038;BME280;59900;50.788;12.904;2023-04-20T12:05:27;97662.72;;;8.30;73.63
72038;BME280;59900;50.788;12.904;2023-04-20T12:07:53;97658.22;;;8.39;72.94
72038;BME280;59900;50.788;12.904;2023-04-20T12:10:18;97656.50;;;8.46;72.53
72038;BME280;59900;50.788;12.904;2023-04-20T12:12:43;97662.47;;;8.55;72.67
72038;BME280;59900;50.788;12.904;2023-04-20T12:15:09;97665.38;;;8.74;72.57
72038;BME280;59900;50.788;12.904;2023-04-20T12:17:34;97654.22;;;8.87;71.84
72038;BME280;59900;50.788;12.904;2023-04-20T12:19:59;97654.06;;;9.03;72.30
72038;BME280;59900;50.788;12.904;2023-04-20T12:22:25;97650.91;;;9.29;72.11
72038;BME280;59900;50.788;12.904;2023-04-20T12:24:50;97654.44;;;9.36;71.30
72038;BME280;59900;50.788;12.904;2023-04-20T12:27:15;97641.94;;;9.38;71.01
72038;BME280;59900;50.788;12.904;2023-04-20T12:29:41;97651.06;;;9.42;70.69
72038;BME280;59900;50.788;12.904;2023-04-20T12:32:06;97634.16;;;9.44;71.17
72038;BME280;59900;50.788;12.904;2023-04-20T12:34:31;97642.84;;;9.45;71.43
72038;BME280;59900;50.788;12.904;2023-04-20T12:36:56;97646.44;;;9.44;71.76
72038;BME280;59900;50.788;12.904;2023-04-20T12:39:22;97641.13;;;9.37;72.33
72038;BME280;59900;50.788;12.904;2023-04-20T12:41:47;97629.06;;;9.43;72.48
72038;BME280;59900;50.788;12.904;2023-04-20T12:44:13;97628.00;;;9.37;72.80
72038;BME280;59900;50.788;12.904;2023-04-20T12:46:38;97620.63;;;9.26;72.97
72038;BME280;59900;50.788;12.904;2023-04-20T12:49:03;97623.25;;;9.26;72.93
72038;BME280;59900;50.788;12.904;2023-04-20T12:51:28;97628.31;;;9.28;73.46
72038;BME280;59900;50.788;12.904;2023-04-20T12:53:54;97629.03;;;9.22;73.68
72038;BME280;59900;50.788;12.904;2023-04-20T12:56:19;97620.47;;;9.13;73.99
72038;BME280;59900;50.788;12.904;2023-04-20T12:58:45;97627.91;;;9.10;75.00
72038;BME280;59900;50.788;12.904;2023-04-20T13:01:10;97636.53;;;9.04;74.85